Time;durP1;ratioP1;P1;durP2;ratioP2;P2;SDS_P1;SDS_P2;PMS_P1;PMS_P2;Temp;Humidity;BMP_temperature;BMP_pressure;BME280_temperature;BME280_humidity;BME280_pressure;Samples;Min_cycle;Max_cycle;Signal;HPM_P1;HPM_P2
2021/12/01 00:00:21;;;;;;;15.50;5.85;;;6.60;56.10;;;;;;6153426;28;20034;-69
2021/12/01 00:03:22;;;;;;;14.07;7.20;;;6.50;56.10;;;;;;6178573;28;20035;-69
2021/12/01 00:06:25;;;;;;;14.90;6.60;;;6.50;56.20;;;;;;6180750;28;20034;-69
2021/12/01 00:09:27;;;;;;;16.00;8.38;;;6.50;56.20;;;;;;6163470;28;20502;-70
2021/12/01 00:12:28;;;;;;;15.38;6.22;;;6.50;56.30;;;;;;6165787;28;20072;-70
2021/12/01 00:15:29;;;;;;;18.48;6.78;;;6.50;56.40;;;;;;6160269;28;20121;-71
2021/12/01 00:18:30;;;;;;;18.65;6.68;;;6.40;56.40;;;;;;6159425;28;20137;-69
2021/12/01 00:21:31;;;;;;;14.60;6.85;;;6.40;56.40;;;;;;6173603;28;20061;-69
2021/12/01 00:24:33;;;;;;;12.40;5.72;;;6.40;56.40;;;;;;6154083;28;20034;-69
2021/12/01 00:27:34;;;;;;;14.20;4.90;;;6.40;56.50;;;;;;6180992;28;22289;-70
2021/12/01 00:30:36;;;;;;;9.88;4.80;;;6.30;56.50;;;;;;6165731;28;20054;-71
2021/12/01 00:33:39;;;;;;;13.90;5.65;;;6.30;56.50;;;;;;6170818;28;20042;-71
2021/12/01 00:36:40;;;;;;;16.27;6.20;;;6.30;56.50;;;;;;6172236;28;20038;-71
2021/12/01 00:39:41;;;;;;;13.40;5.22;;;6.30;56.60;;;;;;6169927;28;20034;-70
2021/12/01 00:42:43;;;;;;;12.43;5.13;;;6.30;56.60;;;;;;6155605;28;20125;-70
2021/12/01 00:45:51;;;;;;;11.13;5.28;;;6.20;56.70;;;;;;6172887;28;20106;-70
2021/12/01 00:48:52;;;;;;;11.57;5.05;;;6.20;56.80;;;;;;6140380;28;20095;-70
2021/12/01 00:51:53;;;;;;;11.20;5.85;;;6.20;56.90;;;;;;6168719;28;20057;-70
2021/12/01 00:54:54;;;;;;;11.98;6.03;;;6.10;57.10;;;;;;6173443;28;20376;-71
2021/12/01 00:57:56;;;;;;;11.23;5.72;;;6.10;57.10;;;;;;6172618;28;20081;-70
2021/12/01 01:00:58;;;;;;;10.70;4.82;;;6.10;57.20;;;;;;6170377;28;20039;-72
2021/12/01 01:03:59;;;;;;;19.30;6.72;;;6.10;57.20;;;;;;6170837;28;20113;-69
2021/12/01 01:06:59;;;;;;;10.93;5.28;;;6.10;57.20;;;;;;6158749;28;20046;-69
2021/12/01 01:10:14;;;;;;;11.48;5.18;;;6.20;57.20;;;;;;6154681;28;20298;-69
2021/12/01 01:16:35;;;;;;;12.15;5.30;;;6.20;57.20;;;;;;6186565;28;20043;-69
2021/12/01 01:19:39;;;;;;;17.13;7.60;;;6.20;57.10;;;;;;6192435;28;20363;-69
2021/12/01 01:22:40;;;;;;;18.73;7.75;;;6.20;57.60;;;;;;6177974;28;20034;-69
2021/12/01 01:25:41;;;;;;;10.43;6.50;;;6.20;57.00;;;;;;6184183;28;20054;-69
2021/12/01 01:28:43;;;;;;;13.48;5.10;;;6.20;57.00;;;;;;6174821;28;20035;-69
2021/12/01 01:31:45;;;;;;;17.55;6.30;;;6.10;57.00;;;;;;6172836;28;20046;-69
2021/12/01 01:34:45;;;;;;;12.30;5.68;;;6.20;57.10;;;;;;6191466;28;22189;-69
2021/12/01 01:37:46;;;;;;;11.32;4.85;;;6.20;57.10;;;;;;6186874;28;20047;-69
2021/12/01 01:40:47;;;;;;;17.15;7.05;;;6.20;57.10;;;;;;6188334;28;20058;-69
2021/12/01 01:43:50;;;;;;;11.02;5.55;;;6.20;57.20;;;;;;6189132;28;20145;-69
2021/12/01 01:46:51;;;;;;;18.40;5.30;;;6.20;57.20;;;;;;6182420;28;20035;-69
2021/12/01 01:50:52;;;;;;;11.57;5.28;;;6.20;57.20;;;;;;6181883;28;20035;-69
2021/12/01 01:53:26;;;;;;;8.85;4.05;;;6.20;57.00;;;;;;6174811;28;20168;-69
2021/12/01 01:56:27;;;;;;;16.52;5.68;;;6.20;56.90;;;;;;6190202;28;20058;-69
2021/12/01 01:59:28;;;;;;;21.63;7.32;;;6.20;56.90;;;;;;6171854;28;20109;-69
2021/12/01 02:02:29;;;;;;;12.50;5.45;;;6.20;56.90;;;;;;6165456;28;20114;-70
2021/12/01 02:05:30;;;;;;;12.52;5.60;;;6.20;56.90;;;;;;6193564;28;20030;-69
2021/12/01 02:08:33;;;;;;;16.00;6.28;;;6.20;57.00;;;;;;6171719;28;20427;-70
2021/12/01 02:11:35;;;;;;;13.63;5.45;;;6.20;57.10;;;;;;6178617;28;20034;-69
2021/12/01 02:14:35;;;;;;;12.52;6.00;;;6.20;57.30;;;;;;6185587;28;20035;-69
2021/12/01 02:17:37;;;;;;;16.70;7.22;;;6.20;57.20;;;;;;6176526;28;20045;-70
2021/12/01 02:20:39;;;;;;;15.60;7.55;;;6.20;57.30;;;;;;6180537;28;20030;-70
2021/12/01 02:23:45;;;;;;;18.98;4.75;;;6.20;57.50;;;;;;6174847;28;20038;-70
2021/12/01 02:26:49;;;;;;;8.00;4.82;;;6.30;57.30;;;;;;6162053;28;20513;-70
2021/12/01 02:29:51;;;;;;;13.35;5.40;;;6.30;57.30;;;;;;6175097;28;20042;-71
2021/12/01 02:32:52;;;;;;;20.35;5.22;;;6.30;57.20;;;;;;6174220;28;20129;-71
2021/12/01 02:35:53;;;;;;;12.90;4.50;;;6.40;57.20;;;;;;6172275;28;20472;-71
2021/12/01 02:38:54;;;;;;;9.43;3.72;;;6.40;57.00;;;;;;6190679;28;20038;-70
2021/12/01 02:41:57;;;;;;;11.90;4.20;;;6.40;56.90;;;;;;6169324;28;20053;-70
2021/12/01 02:44:59;;;;;;;10.68;5.18;;;6.40;56.80;;;;;;6166963;28;20050;-70
2021/12/01 02:48:00;;;;;;;11.00;5.40;;;6.40;56.70;;;;;;6194053;28;20034;-70
2021/12/01 02:51:04;;;;;;;7.68;4.28;;;6.30;57.30;;;;;;6189154;28;20035;-70
2021/12/01 02:54:07;;;;;;;15.27;4.47;;;6.30;56.90;;;;;;6186159;28;20058;-70
2021/12/01 02:57:08;;;;;;;23.83;7.80;;;6.30;57.10;;;;;;6176953;28;20052;-70
2021/12/01 03:00:09;;;;;;;16.65;6.75;;;6.30;57.30;;;;;;6181614;28;20038;-70
2021/12/01 03:03:12;;;;;;;10.00;5.10;;;6.20;57.50;;;;;;6182025;28;20035;-70
2021/12/01 03:06:13;;;;;;;13.80;6.05;;;6.10;57.70;;;;;;6173193;28;20034;-70
2021/12/01 03:09:15;;;;;;;12.98;5.57;;;6.00;58.00;;;;;;6177768;28;20121;-69
2021/12/01 03:12:16;;;;;;;12.18;5.05;;;5.90;58.10;;;;;;6174140;28;20426;-69
2021/12/01 03:15:17;;;;;;;10.95;5.28;;;5.90;58.30;;;;;;6193086;28;20044;-69
2021/12/01 03:18:18;;;;;;;8.38;4.28;;;5.90;58.40;;;;;;6177456;28;20043;-69
2021/12/01 03:21:20;;;;;;;14.13;4.53;;;5.90;58.40;;;;;;6175897;28;20035;-69
2021/12/01 03:24:20;;;;;;;7.03;4.03;;;5.90;58.40;;;;;;6187539;28;20046;-70
2021/12/01 03:27:22;;;;;;;10.65;4.32;;;5.90;58.40;;;;;;6176038;28;20367;-69
2021/12/01 03:30:23;;;;;;;10.90;4.70;;;5.90;58.40;;;;;;6154825;28;20089;-69
2021/12/01 03:33:24;;;;;;;8.43;4.25;;;6.00;58.40;;;;;;6192050;28;20039;-69
2021/12/01 03:36:26;;;;;;;10.48;4.00;;;6.00;58.40;;;;;;6173787;28;20046;-70
2021/12/01 03:39:27;;;;;;;10.90;5.05;;;6.00;58.40;;;;;;6187902;28;20030;-70
2021/12/01 03:42:28;;;;;;;8.63;4.32;;;6.00;58.40;;;;;;6163053;28;20030;-70
2021/12/01 03:45:30;;;;;;;10.20;5.10;;;6.00;58.40;;;;;;6157552;28;20046;-70
2021/12/01 03:48:30;;;;;;;12.52;4.50;;;6.00;58.50;;;;;;6188242;28;20113;-70
2021/12/01 03:51:31;;;;;;;11.23;5.47;;;6.00;58.50;;;;;;6155848;28;20354;-70
2021/12/01 03:54:32;;;;;;;8.15;4.20;;;6.00;58.60;;;;;;6166828;28;20470;-70
2021/12/01 03:57:33;;;;;;;8.45;4.07;;;5.90;58.80;;;;;;6139857;28;20043;-70
2021/12/01 04:00:34;;;;;;;13.18;5.00;;;5.90;58.90;;;;;;6168214;28;20453;-70
2021/12/01 04:03:35;;;;;;;14.82;4.72;;;5.90;58.90;;;;;;6162232;28;20106;-70
2021/12/01 04:06:36;;;;;;;7.43;4.32;;;5.80;58.90;;;;;;6154859;28;20035;-71
2021/12/01 04:09:40;;;;;;;6.47;3.63;;;5.80;59.00;;;;;;6152806;28;20038;-71
2021/12/01 04:12:42;;;;;;;7.50;3.40;;;5.80;59.10;;;;;;6153780;28;20050;-70
2021/12/01 04:15:43;;;;;;;12.27;4.70;;;5.70;59.20;;;;;;6164036;28;20031;-70
2021/12/01 04:18:44;;;;;;;9.93;4.90;;;5.70;59.20;;;;;;6166163;28;20365;-70
2021/12/01 04:21:45;;;;;;;11.90;5.07;;;5.70;59.30;;;;;;6154935;28;20031;-70
2021/12/01 04:24:46;;;;;;;15.85;4.28;;;5.70;59.40;;;;;;6141244;28;20369;-70
2021/12/01 04:27:47;;;;;;;12.45;4.75;;;5.60;59.50;;;;;;6164302;28;20043;-70
2021/12/01 04:30:49;;;;;;;7.68;3.85;;;5.60;59.60;;;;;;6151476;28;20067;-71
2021/12/01 04:33:50;;;;;;;14.13;4.70;;;5.60;59.60;;;;;;6141170;28;20117;-71
2021/12/01 04:36:52;;;;;;;8.82;4.32;;;5.60;59.60;;;;;;6155121;28;20046;-70
2021/12/01 04:39:54;;;;;;;7.05;3.67;;;5.60;59.70;;;;;;6155814;28;20043;-70
2021/12/01 04:42:55;;;;;;;6.03;3.63;;;5.50;59.70;;;;;;6149431;28;20090;-70
2021/12/01 04:45:59;;;;;;;11.25;3.33;;;5.50;59.80;;;;;;6136718;28;20125;-71
2021/12/01 04:49:00;;;;;;;11.27;3.88;;;5.50;59.80;;;;;;6147435;28;20441;-71
2021/12/01 04:52:01;;;;;;;7.40;4.50;;;5.50;59.80;;;;;;6161196;28;20109;-71
2021/12/01 04:55:03;;;;;;;9.38;4.40;;;5.50;59.90;;;;;;6158059;28;20117;-70
2021/12/01 04:58:04;;;;;;;9.80;4.05;;;5.50;59.90;;;;;;6173043;28;20038;-70
2021/12/01 05:01:05;;;;;;;8.63;3.72;;;5.50;59.90;;;;;;6184336;28;20238;-71
2021/12/01 05:04:06;;;;;;;8.85;3.90;;;5.60;60.00;;;;;;6195636;28;20511;-71
2021/12/01 05:07:08;;;;;;;7.20;3.45;;;5.60;59.90;;;;;;6189569;28;20038;-71
2021/12/01 05:10:09;;;;;;;9.05;3.28;;;5.60;59.80;;;;;;6189285;28;20031;-70
2021/12/01 05:13:10;;;;;;;8.00;3.70;;;5.60;59.80;;;;;;6198311;28;20029;-71
2021/12/01 05:16:11;;;;;;;6.35;3.88;;;5.60;59.80;;;;;;6194140;28;20062;-71
2021/12/01 05:19:12;;;;;;;6.20;3.50;;;5.70;59.90;;;;;;6177517;28;20034;-71
2021/12/01 05:22:13;;;;;;;8.93;4.18;;;5.70;59.80;;;;;;6177854;28;20077;-71
2021/12/01 05:25:14;;;;;;;11.57;5.15;;;5.70;59.80;;;;;;6176633;28;20026;-71
2021/12/01 05:28:15;;;;;;;9.23;4.57;;;5.70;59.80;;;;;;6198233;28;20031;-71
2021/12/01 05:31:16;;;;;;;8.13;4.22;;;5.70;59.80;;;;;;6190944;28;20368;-70
2021/12/01 05:34:17;;;;;;;7.82;3.17;;;5.70;59.80;;;;;;6182383;28;20045;-70
2021/12/01 05:37:18;;;;;;;8.85;3.88;;;5.80;59.70;;;;;;6190640;28;20057;-70
2021/12/01 05:40:19;;;;;;;7.43;3.58;;;5.80;59.70;;;;;;6166263;28;20034;-71
2021/12/01 05:43:20;;;;;;;8.88;3.83;;;5.70;59.60;;;;;;6165496;28;20042;-71
2021/12/01 05:46:21;;;;;;;12.98;3.05;;;5.70;59.50;;;;;;6185507;28;20034;-71
2021/12/01 05:49:22;;;;;;;7.95;2.83;;;5.70;59.50;;;;;;6193788;28;20092;-70
2021/12/01 05:52:23;;;;;;;7.40;2.90;;;5.70;59.40;;;;;;6175534;28;20039;-72
2021/12/01 05:55:24;;;;;;;5.00;2.63;;;5.70;59.30;;;;;;6192342;28;20361;-70
2021/12/01 05:58:25;;;;;;;7.97;3.13;;;5.70;59.30;;;;;;6191218;28;20043;-70
2021/12/01 06:01:26;;;;;;;4.82;2.58;;;5.70;59.30;;;;;;6179901;28;20107;-70
2021/12/01 06:04:28;;;;;;;5.82;2.90;;;5.70;59.10;;;;;;6197153;28;20117;-70
2021/12/01 06:07:28;;;;;;;5.60;2.72;;;5.70;59.10;;;;;;6190305;28;20038;-71
2021/12/01 06:10:29;;;;;;;7.25;3.08;;;5.70;58.90;;;;;;6181864;28;20122;-70
2021/12/01 06:13:31;;;;;;;7.35;3.70;;;5.70;58.80;;;;;;6171690;28;20118;-70
2021/12/01 06:16:32;;;;;;;8.50;3.72;;;5.80;58.80;;;;;;6181384;28;20030;-71
2021/12/01 06:19:33;;;;;;;9.55;3.78;;;5.80;58.80;;;;;;6189247;28;20531;-70
2021/12/01 06:22:34;;;;;;;17.23;4.68;;;5.80;58.90;;;;;;6188599;28;20035;-70
2021/12/01 06:25:36;;;;;;;8.05;3.72;;;5.80;59.00;;;;;;6174618;28;20046;-70
2021/12/01 06:28:38;;;;;;;11.10;3.47;;;5.80;59.00;;;;;;6191600;28;20026;-71
2021/12/01 06:31:38;;;;;;;10.35;4.80;;;5.70;59.10;;;;;;6191596;28;20096;-70
2021/12/01 06:34:39;;;;;;;9.80;4.53;;;5.70;59.30;;;;;;6181222;28;20456;-70
2021/12/01 06:37:42;;;;;;;14.63;6.55;;;5.70;59.40;;;;;;6186487;28;20038;-71
2021/12/01 06:40:44;;;;;;;21.65;7.57;;;5.60;59.50;;;;;;6156260;28;20031;-71
2021/12/01 06:43:45;;;;;;;10.13;4.35;;;5.60;59.60;;;;;;6186642;28;20030;-70
2021/12/01 06:46:47;;;;;;;14.70;5.45;;;5.50;59.80;;;;;;6197870;28;20463;-71
2021/12/01 06:49:48;;;;;;;14.50;5.00;;;5.40;59.90;;;;;;6168191;28;20046;-71
2021/12/01 06:52:49;;;;;;;12.68;6.03;;;5.40;60.10;;;;;;6179733;28;20493;-71
2021/12/01 06:55:50;;;;;;;16.63;6.80;;;5.30;60.30;;;;;;6185370;28;20038;-69
2021/12/01 06:58:50;;;;;;;7.05;3.95;;;5.30;60.60;;;;;;6178425;28;20034;-70
2021/12/01 07:01:51;;;;;;;11.25;6.18;;;5.40;60.70;;;;;;6182877;28;20038;-70
2021/12/01 07:04:52;;;;;;;10.57;5.32;;;5.40;60.70;;;;;;6176745;28;20431;-71
2021/12/01 07:07:54;;;;;;;10.98;4.72;;;5.40;60.80;;;;;;6158763;28;20039;-70
2021/12/01 07:10:55;;;;;;;16.35;5.32;;;5.40;60.70;;;;;;6187626;28;20034;-70
2021/12/01 07:13:56;;;;;;;7.35;4.20;;;5.40;60.70;;;;;;6184874;28;20061;-70
2021/12/01 07:16:57;;;;;;;10.63;4.95;;;5.40;60.70;;;;;;6165161;28;20050;-70
2021/12/01 07:19:58;;;;;;;9.95;3.95;;;5.40;60.70;;;;;;6189770;28;20034;-70
2021/12/01 07:22:59;;;;;;;9.80;4.60;;;5.30;60.70;;;;;;6187669;28;20031;-70
2021/12/01 07:26:01;;;;;;;14.80;5.32;;;5.30;60.90;;;;;;6169746;28;20461;-71
2021/12/01 07:29:02;;;;;;;15.35;5.25;;;5.20;60.90;;;;;;6175889;28;20049;-71
2021/12/01 07:32:04;;;;;;;13.25;5.53;;;5.20;61.10;;;;;;6179143;28;20068;-70
2021/12/01 07:35:06;;;;;;;8.15;4.50;;;5.10;61.10;;;;;;6178170;28;20043;-70
2021/12/01 07:38:07;;;;;;;9.32;4.63;;;5.10;61.40;;;;;;6191237;28;20054;-70
2021/12/01 07:41:08;;;;;;;6.47;3.83;;;5.10;61.40;;;;;;6171514;28;20030;-70
2021/12/01 07:44:09;;;;;;;13.98;4.82;;;5.10;61.50;;;;;;6166248;28;20116;-70
2021/12/01 07:47:11;;;;;;;14.18;5.90;;;5.10;61.60;;;;;;6177551;28;20042;-71
2021/12/01 07:50:12;;;;;;;15.05;6.53;;;5.10;61.70;;;;;;6176627;28;20073;-71
2021/12/01 07:53:13;;;;;;;12.85;5.57;;;5.10;61.60;;;;;;6166855;28;20125;-70
2021/12/01 07:56:14;;;;;;;11.95;6.03;;;5.10;61.80;;;;;;6167282;28;20038;-70
2021/12/01 07:59:15;;;;;;;8.50;4.38;;;5.20;61.70;;;;;;6156807;28;20042;-71
2021/12/01 08:02:16;;;;;;;18.83;4.90;;;5.20;61.80;;;;;;6196307;28;20494;-71
2021/12/01 08:05:17;;;;;;;18.83;6.78;;;5.20;61.70;;;;;;6191211;28;20034;-70
2021/12/01 08:08:18;;;;;;;15.55;6.80;;;5.30;61.80;;;;;;6176122;28;20046;-70
2021/12/01 08:11:19;;;;;;;17.67;5.53;;;5.30;61.60;;;;;;6174432;28;20053;-71
2021/12/01 08:14:21;;;;;;;13.02;5.80;;;5.40;61.60;;;;;;6183641;28;20062;-71
2021/12/01 08:17:22;;;;;;;10.45;5.30;;;5.50;61.60;;;;;;6191501;28;20034;-72
2021/12/01 08:20:23;;;;;;;12.23;5.85;;;5.60;61.40;;;;;;6165559;28;20076;-70
2021/12/01 08:23:24;;;;;;;10.95;5.55;;;5.60;61.30;;;;;;6173514;28;20090;-70
2021/12/01 08:26:25;;;;;;;12.68;5.78;;;5.70;61.10;;;;;;6169794;28;20058;-72
2021/12/01 08:29:26;;;;;;;10.20;5.00;;;5.80;61.40;;;;;;6188961;28;20031;-70
2021/12/01 08:32:27;;;;;;;9.73;5.10;;;5.90;60.90;;;;;;6187831;28;20114;-70
2021/12/01 08:35:28;;;;;;;12.60;4.93;;;6.10;60.50;;;;;;6183969;28;20039;-71
2021/12/01 08:38:29;;;;;;;18.58;6.57;;;6.30;60.10;;;;;;6190438;28;20049;-70
2021/12/01 08:41:30;;;;;;;22.45;7.60;;;6.40;59.70;;;;;;6191866;28;20031;-70
2021/12/01 08:44:30;;;;;;;21.33;9.38;;;6.60;59.50;;;;;;6173713;28;20027;-71
2021/12/01 08:47:31;;;;;;;10.00;6.55;;;6.70;59.50;;;;;;6188502;28;20105;-70
2021/12/01 08:50:33;;;;;;;15.05;5.43;;;6.80;59.30;;;;;;6171075;28;20057;-70
2021/12/01 08:53:37;;;;;;;10.95;5.82;;;7.00;59.20;;;;;;6170175;28;20038;-72
2021/12/01 08:56:40;;;;;;;17.23;6.97;;;7.10;58.90;;;;;;6178118;28;20294;-70
2021/12/01 08:59:44;;;;;;;12.95;6.20;;;7.20;58.70;;;;;;6173515;28;20471;-70
2021/12/01 09:02:45;;;;;;;11.30;5.22;;;7.40;58.60;;;;;;6165437;28;20404;-70
2021/12/01 09:05:47;;;;;;;15.05;3.78;;;7.60;58.20;;;;;;6170383;28;20047;-70
2021/12/01 09:08:48;;;;;;;8.02;4.20;;;7.70;57.80;;;;;;6176907;28;20117;-69
2021/12/01 09:11:52;;;;;;;10.00;4.80;;;7.90;57.20;;;;;;6193398;28;20050;-71
2021/12/01 09:14:55;;;;;;;10.70;5.20;;;8.10;56.90;;;;;;6185641;28;20380;-72
2021/12/01 09:17:57;;;;;;;18.95;8.02;;;8.30;56.60;;;;;;6165056;28;20046;-71
2021/12/01 09:20:58;;;;;;;11.07;5.75;;;8.50;56.30;;;;;;6171841;28;20038;-70
2021/12/01 09:23:59;;;;;;;10.10;4.97;;;8.60;55.80;;;;;;6189838;28;20105;-70
2021/12/01 09:27:00;;;;;;;11.55;5.68;;;8.60;55.60;;;;;;6165889;28;20030;-70
2021/12/01 09:30:01;;;;;;;12.10;5.90;;;8.60;56.00;;;;;;6187643;28;20046;-70
2021/12/01 09:33:02;;;;;;;17.42;6.18;;;8.60;55.40;;;;;;6176987;28;20112;-70
2021/12/01 09:36:04;;;;;;;18.08;4.95;;;8.50;55.70;;;;;;6173877;28;20039;-71
2021/12/01 09:39:06;;;;;;;10.70;5.10;;;8.30;55.80;;;;;;6189259;28;20066;-71
2021/12/01 09:42:08;;;;;;;10.52;4.32;;;8.40;55.90;;;;;;6182372;28;20042;-70
2021/12/01 09:45:11;;;;;;;18.60;5.80;;;8.40;56.60;;;;;;6176291;28;20039;-71
2021/12/01 09:48:12;;;;;;;16.88;5.28;;;8.40;55.80;;;;;;6194929;28;20471;-70
2021/12/01 09:51:15;;;;;;;9.68;5.47;;;8.60;55.80;;;;;;6179008;28;20050;-70
2021/12/01 09:54:16;;;;;;;11.82;5.10;;;8.50;55.80;;;;;;6195410;28;20039;-71
2021/12/01 09:57:17;;;;;;;14.15;6.43;;;8.70;55.80;;;;;;6182696;28;20337;-71
2021/12/01 10:00:18;;;;;;;12.95;6.15;;;9.00;55.70;;;;;;6171896;28;20483;-70
2021/12/01 10:03:20;;;;;;;10.18;4.68;;;9.40;55.10;;;;;;6162789;28;20113;-72
2021/12/01 10:06:23;;;;;;;9.80;5.22;;;9.80;53.90;;;;;;6161822;28;20049;-71
2021/12/01 10:09:24;;;;;;;23.33;7.25;;;10.00;53.00;;;;;;6196844;28;20043;-71
2021/12/01 10:12:42;;;;;;;11.73;5.90;;;10.20;52.50;;;;;;6191859;28;20050;-71
2021/12/01 10:15:43;;;;;;;7.32;4.13;;;10.40;52.40;;;;;;6160271;28;20030;-70
2021/12/01 10:18:46;;;;;;;11.23;4.43;;;10.70;52.20;;;;;;6191723;28;20483;-71
2021/12/01 10:21:49;;;;;;;10.95;4.78;;;10.90;51.50;;;;;;6180219;28;20053;-71
2021/12/01 10:24:50;;;;;;;11.07;5.20;;;11.10;51.50;;;;;;6177709;28;20464;-71
2021/12/01 10:27:51;;;;;;;18.90;6.43;;;11.30;50.90;;;;;;6186556;28;20057;-71
2021/12/01 10:30:52;;;;;;;11.23;4.95;;;11.40;50.50;;;;;;6158757;28;20039;-72
2021/12/01 10:33:53;;;;;;;25.67;6.65;;;11.40;50.30;;;;;;6176644;28;20505;-71
2021/12/01 10:40:26;;;;;;;8.93;4.85;;;11.30;50.30;;;;;;6187461;28;20041;-71
2021/12/01 10:43:35;;;;;;;13.52;5.47;;;11.20;50.20;;;;;;6183575;28;20031;-70
2021/12/01 10:46:47;;;;;;;8.60;4.63;;;11.20;50.30;;;;;;6175561;28;20034;-71
2021/12/01 10:49:49;;;;;;;14.90;5.60;;;11.10;50.20;;;;;;6181505;28;20038;-70
2021/12/01 10:52:52;;;;;;;14.80;6.22;;;11.00;50.40;;;;;;6190237;28;20050;-71
2021/12/01 10:56:00;;;;;;;10.23;5.10;;;10.90;50.60;;;;;;6181313;28;20114;-71
2021/12/01 10:59:14;;;;;;;21.27;6.90;;;10.80;50.60;;;;;;6188013;28;20111;-71
2021/12/01 11:02:16;;;;;;;14.35;6.53;;;10.80;50.90;;;;;;6174832;28;20037;-71
2021/12/01 11:05:31;;;;;;;26.15;11.55;;;10.80;51.10;;;;;;6143835;28;20121;-71
2021/12/01 11:08:36;;;;;;;33.08;9.80;;;10.70;51.20;;;;;;6184288;28;20039;-70
2021/12/01 11:11:44;;;;;;;17.80;7.72;;;10.80;51.30;;;;;;6179364;28;20038;-71
2021/12/01 11:14:45;;;;;;;13.30;5.82;;;10.80;51.40;;;;;;6165023;28;20089;-70
2021/12/01 11:17:46;;;;;;;23.58;8.25;;;11.00;51.40;;;;;;6175789;28;20043;-71
2021/12/01 11:20:52;;;;;;;22.42;8.48;;;11.10;51.20;;;;;;6190472;28;20153;-71
2021/12/01 11:23:56;;;;;;;23.42;9.35;;;11.10;51.10;;;;;;6172854;28;20034;-71
2021/12/01 11:26:56;;;;;;;16.45;7.78;;;11.10;51.20;;;;;;6192592;28;20026;-72
2021/12/01 11:29:57;;;;;;;18.33;8.02;;;11.00;51.30;;;;;;6178902;28;20026;-71
2021/12/01 11:32:59;;;;;;;35.83;12.35;;;11.10;51.20;;;;;;6187194;28;20404;-71
2021/12/01 11:36:05;;;;;;;24.45;8.48;;;11.10;51.30;;;;;;6168089;28;20361;-71
2021/12/01 11:39:11;;;;;;;17.70;5.47;;;11.10;51.30;;;;;;6180329;28;20046;-71
2021/12/01 11:42:13;;;;;;;16.92;7.15;;;11.10;51.30;;;;;;6174164;28;20053;-72
2021/12/01 11:45:15;;;;;;;16.27;6.75;;;11.20;51.40;;;;;;6176473;28;20046;-70
2021/12/01 11:48:49;;;;;;;19.48;6.22;;;11.20;51.40;;;;;;6171460;28;20062;-71
2021/12/01 11:52:04;;;;;;;12.50;5.70;;;11.30;51.60;;;;;;6079063;29;20537;-71
2021/12/01 11:55:05;;;;;;;15.57;6.50;;;11.30;51.60;;;;;;6074105;29;20458;-71
2021/12/01 11:58:05;;;;;;;12.38;5.45;;;11.20;51.70;;;;;;6068956;29;20127;-71
2021/12/01 12:01:36;;;;;;;16.83;7.65;;;11.10;51.90;;;;;;6081645;29;20036;-72
2021/12/01 12:04:42;;;;;;;24.92;10.00;;;11.10;52.20;;;;;;6044485;29;20416;-70
2021/12/01 12:07:45;;;;;;;18.20;7.93;;;11.00;52.50;;;;;;6047771;29;20648;-72
2021/12/01 12:10:46;;;;;;;29.30;11.40;;;10.90;52.80;;;;;;6047576;29;20045;-71
2021/12/01 12:14:12;;;;;;;26.40;8.82;;;10.90;53.10;;;;;;6033525;29;20184;-71
2021/12/01 12:17:15;;;;;;;14.55;7.10;;;10.70;53.40;;;;;;6038385;29;20060;-71
2021/12/01 12:20:29;;;;;;;19.15;7.43;;;10.60;53.50;;;;;;6032631;29;20041;-74
2021/12/01 12:23:33;;;;;;;28.42;10.32;;;10.60;53.70;;;;;;6049523;29;20125;-70
2021/12/01 12:26:38;;;;;;;14.90;5.63;;;10.50;53.90;;;;;;6050673;29;20104;-73
2021/12/01 12:29:45;;;;;;;16.58;8.52;;;10.40;54.10;;;;;;6051772;29;20044;-71
2021/12/01 12:32:46;;;;;;;28.20;10.07;;;10.40;54.20;;;;;;6071494;29;20339;-71
2021/12/01 12:35:50;;;;;;;25.20;9.10;;;10.40;54.30;;;;;;6065970;29;20277;-71
2021/12/01 12:39:06;;;;;;;31.90;12.05;;;10.40;54.50;;;;;;6055047;29;20048;-71
2021/12/01 12:42:09;;;;;;;29.33;10.88;;;10.30;54.60;;;;;;6124378;28;20126;-72
2021/12/01 12:45:26;;;;;;;38.40;13.00;;;10.30;54.90;;;;;;6137081;28;20520;-70
2021/12/01 12:48:33;;;;;;;25.95;10.57;;;10.20;55.30;;;;;;6163807;28;20032;-71
2021/12/01 12:51:38;;;;;;;36.15;13.68;;;10.10;55.50;;;;;;6143751;28;20534;-71
2021/12/01 12:54:39;;;;;;;23.45;8.75;;;10.00;55.60;;;;;;6178966;28;20121;-71
2021/12/01 12:57:49;;;;;;;21.02;7.75;;;9.90;55.70;;;;;;6174737;28;20035;-70
2021/12/01 13:00:56;;;;;;;15.95;7.28;;;9.80;55.90;;;;;;6186978;28;20042;-70
2021/12/01 13:03:57;;;;;;;16.45;6.88;;;9.70;56.30;;;;;;6177058;28;20046;-71
2021/12/01 13:06:58;;;;;;;11.75;6.68;;;9.60;56.60;;;;;;6189337;28;20034;-72
2021/12/01 13:10:06;;;;;;;13.13;5.53;;;9.50;56.80;;;;;;6187509;28;20388;-71
2021/12/01 13:13:20;;;;;;;21.95;6.40;;;9.50;57.00;;;;;;6188629;28;20122;-71
2021/12/01 13:16:21;;;;;;;16.08;6.45;;;9.50;57.20;;;;;;6183304;28;20040;-70
2021/12/01 13:19:22;;;;;;;15.95;5.97;;;9.50;57.30;;;;;;6200001;28;20046;-71
2021/12/01 13:22:24;;;;;;;24.17;7.25;;;9.50;57.50;;;;;;6193836;28;20035;-71
2021/12/01 13:25:25;;;;;;;12.68;6.68;;;9.50;57.60;;;;;;6181038;28;20117;-72
2021/12/01 13:28:35;;;;;;;21.88;6.50;;;9.40;57.70;;;;;;6177623;28;20117;-71
2021/12/01 13:31:42;;;;;;;30.55;10.50;;;9.30;57.90;;;;;;6182299;28;20034;-73
2021/12/01 13:34:43;;;;;;;20.33;9.32;;;9.30;58.20;;;;;;6176316;28;20357;-72
2021/12/01 13:37:54;;;;;;;19.48;7.80;;;9.20;58.30;;;;;;6193561;28;20096;-71
2021/12/01 13:41:04;;;;;;;18.10;7.00;;;9.20;58.40;;;;;;6162216;28;20113;-71
2021/12/01 13:44:14;;;;;;;12.05;6.28;;;9.10;58.60;;;;;;6169860;28;20890;-71
2021/12/01 13:47:17;;;;;;;16.90;5.25;;;9.20;58.60;;;;;;6159142;28;20027;-71
2021/12/01 13:50:19;;;;;;;14.75;6.45;;;9.20;58.60;;;;;;6190130;28;20044;-71
2021/12/01 13:53:27;;;;;;;12.90;5.90;;;9.10;58.60;;;;;;6175683;28;20503;-71
2021/12/01 13:56:28;;;;;;;13.82;5.70;;;9.10;58.70;;;;;;6167165;28;20038;-71
2021/12/01 13:59:50;;;;;;;13.43;6.85;;;9.10;58.80;;;;;;6169622;28;20082;-71
2021/12/01 14:02:52;;;;;;;15.45;7.07;;;9.10;59.00;;;;;;6178167;28;20058;-71
2021/12/01 14:05:55;;;;;;;11.98;5.70;;;9.10;59.10;;;;;;6180228;28;20083;-71
2021/12/01 14:09:15;;;;;;;18.17;5.70;;;9.10;59.20;;;;;;6173505;28;20100;-71
2021/12/01 14:12:20;;;;;;;14.40;6.78;;;9.00;59.90;;;;;;6167162;28;20049;-71
2021/12/01 14:15:28;;;;;;;14.70;6.90;;;8.90;59.50;;;;;;6155392;28;20061;-71
2021/12/01 14:18:30;;;;;;;19.42;7.15;;;8.90;59.80;;;;;;6176245;28;20460;-71
2021/12/01 14:21:35;;;;;;;15.20;7.30;;;8.90;60.00;;;;;;6179364;28;20038;-71
2021/12/01 14:24:36;;;;;;;13.70;6.82;;;8.80;60.20;;;;;;6177714;28;20463;-72
2021/12/01 14:27:38;;;;;;;14.80;7.72;;;8.80;60.40;;;;;;6173881;28;20039;-70
2021/12/01 14:30:48;;;;;;;14.45;7.30;;;8.70;60.70;;;;;;6185371;28;20448;-72
2021/12/01 14:34:03;;;;;;;15.90;6.95;;;8.70;60.90;;;;;;6181062;28;20038;-71
2021/12/01 14:37:07;;;;;;;22.05;8.13;;;8.70;61.30;;;;;;6174899;28;20042;-70
2021/12/01 14:40:13;;;;;;;19.58;8.13;;;8.70;61.70;;;;;;6158018;28;20026;-72
2021/12/01 14:43:14;;;;;;;16.02;6.50;;;8.70;61.90;;;;;;6159400;28;20470;-71
2021/12/01 14:46:17;;;;;;;19.75;7.35;;;8.70;61.90;;;;;;6177982;28;20038;-71
2021/12/01 14:49:18;;;;;;;19.42;8.52;;;8.70;62.20;;;;;;6176540;28;20026;-71
2021/12/01 14:52:23;;;;;;;20.00;6.93;;;8.70;62.40;;;;;;6190085;28;20041;-71
2021/12/01 14:55:24;;;;;;;21.25;7.55;;;8.70;62.60;;;;;;6187309;28;20030;-72
2021/12/01 14:58:25;;;;;;;19.98;7.40;;;8.70;62.60;;;;;;6170468;28;20035;-70
2021/12/01 15:01:26;;;;;;;14.52;7.43;;;8.70;62.80;;;;;;6148584;28;20030;-71
2021/12/01 15:04:27;;;;;;;18.20;8.27;;;8.70;62.90;;;;;;6165433;28;20057;-71
2021/12/01 15:07:28;;;;;;;20.50;7.03;;;8.60;62.90;;;;;;6193095;28;20053;-71
2021/12/01 15:10:40;;;;;;;12.02;6.53;;;8.60;63.00;;;;;;6156326;28;20034;-70
2021/12/01 15:13:44;;;;;;;11.85;6.30;;;8.60;63.20;;;;;;6184431;28;20034;-72
2021/12/01 15:16:45;;;;;;;15.25;6.57;;;8.60;63.30;;;;;;6147530;28;20031;-71
2021/12/01 15:20:09;;;;;;;19.35;8.45;;;8.60;63.50;;;;;;6180427;28;20455;-72
2021/12/01 15:23:10;;;;;;;13.68;6.93;;;8.60;63.70;;;;;;6179717;28;20046;-71
2021/12/01 15:26:14;;;;;;;16.25;7.35;;;8.50;63.90;;;;;;6181411;28;20100;-71
2021/12/01 15:29:21;;;;;;;23.45;9.82;;;8.50;64.10;;;;;;6188841;28;20026;-72
2021/12/01 15:32:23;;;;;;;23.00;8.05;;;8.50;64.20;;;;;;6190938;28;20062;-71
2021/12/01 15:35:24;;;;;;;19.55;8.70;;;8.40;64.40;;;;;;6179575;28;20042;-71
2021/12/01 15:38:25;;;;;;;20.80;8.93;;;8.40;64.50;;;;;;6190059;28;20096;-70
2021/12/01 15:41:26;;;;;;;25.20;7.75;;;8.40;64.80;;;;;;6146384;28;20363;-70
2021/12/01 15:44:28;;;;;;;19.70;7.90;;;8.40;65.00;;;;;;6174810;28;20035;-71
2021/12/01 15:47:29;;;;;;;24.27;8.07;;;8.40;65.20;;;;;;6158682;28;20087;-70
2021/12/01 15:50:30;;;;;;;27.58;7.95;;;8.40;65.20;;;;;;6191676;28;20128;-71
2021/12/01 15:53:31;;;;;;;21.38;8.45;;;8.40;65.40;;;;;;6176376;28;20158;-71
2021/12/01 15:56:34;;;;;;;13.68;6.85;;;8.50;65.50;;;;;;6181208;28;20034;-72
2021/12/01 15:59:35;;;;;;;17.15;8.23;;;8.50;65.40;;;;;;6188187;28;20034;-71